Aviation Digital Data Service (ADDS)

Output produced by METARs form (2106 UTC 27 May 2017)
found at http://aviationweather.gov/adds/metars/
 
KBPT 272053Z 18013G18KT 10SM SCT022 30/23 A2993 RMK AO2 SLP135 T03000233 58016